CET,Max TemperatureF,Mean TemperatureF,Min TemperatureF,Max Dew PointF,MeanDew PointF,Min DewpointF,Max Humidity, Mean Humidity, Min Humidity, Max Sea Level PressureIn, Mean Sea Level PressureIn, Min Sea Level PressureIn, Max VisibilityMiles, Mean VisibilityMiles, Min VisibilityMiles, Max Wind SpeedMPH, Mean Wind SpeedMPH, Max Gust SpeedMPH,PrecipitationIn, CloudCover, Events, WindDirDegrees
2013-10-1,53,42,31,37,33,30,100,72,38,30.06,29.96,29.92,19,7,6,15,5,,0.00,2,,36
2013-10-2,51,41,31,37,31,28,93,69,36,30.35,30.21,30.06,16,8,6,14,5,,0.00,3,,77
2013-10-3,51,39,27,32,29,27,93,67,31,30.45,30.35,30.30,19,9,5,18,8,,0.00,,,115
2013-10-4,55,42,29,32,29,27,93,66,29,30.43,30.29,30.21,12,12,12,14,8,21,0.00,,,114
2013-10-5,54,42,30,37,33,28,93,68,39,30.25,30.11,30.06,19,15,12,12,6,,0.00,8,,110
2013-10-6,57,49,41,41,38,36,87,70,50,30.30,30.21,30.12,7,5,4,5,3,,0.00,4,Rain,302
2013-10-7,54,48,43,45,43,39,100,80,57,30.38,30.33,30.30,6,5,1,8,3,,0.00,7,Fog,91
2013-10-8,59,48,36,52,43,36,100,87,49,30.33,30.27,30.21,7,2,0,9,2,,0.00,3,Fog,95
2013-10-9,55,48,40,48,44,39,100,87,72,30.24,30.10,29.92,6,4,1,10,7,,0.00,7,,213
2013-10-10,61,52,44,50,46,43,100,83,50,29.92,29.76,29.68,19,5,3,14,9,,0.39,5,Rain,216
2013-10-11,54,48,41,54,45,39,100,96,84,30.09,29.90,29.80,19,3,0,15,8,,0.35,7,Fog-Rain,169
2013-10-12,53,44,36,52,45,36,100,95,88,30.15,30.04,30.01,9,4,1,12,6,,0.08,6,Rain-Thunderstorm,143
2013-10-13,54,46,39,46,42,39,100,86,60,30.20,30.12,30.04,19,5,1,17,8,,0.00,5,,238
2013-10-14,56,44,32,48,40,32,100,93,67,30.23,30.13,30.06,7,2,0,8,3,,0.00,2,Fog,26
2013-10-15,55,46,37,48,42,37,100,91,72,30.09,29.93,29.74,16,3,0,15,5,,0.00,3,Fog-Rain,184
2013-10-16,51,45,39,45,42,37,93,85,71,30.02,29.87,29.74,19,7,4,15,9,,0.02,5,Rain,269
2013-10-17,56,46,37,47,42,36,100,86,67,30.04,29.94,29.86,6,5,2,26,12,31,0.12,4,Rain,214
2013-10-18,52,47,42,46,42,39,87,76,61,30.16,30.03,29.89,6,6,6,23,15,33,0.00,5,Rain,269
2013-10-19,58,46,34,45,41,34,100,84,55,30.21,30.09,30.01,16,5,1,9,5,,0.00,1,Fog,139
2013-10-20,62,52,41,54,48,39,100,87,61,30.08,30.04,30.01,12,5,3,12,4,,0.24,4,Rain-Thunderstorm,130
2013-10-21,64,58,51,54,52,50,100,85,62,30.09,30.06,30.04,16,7,6,17,10,,0.00,2,,214
2013-10-22,64,55,46,55,51,46,100,85,66,30.08,30.01,29.94,19,6,2,15,6,,0.00,1,Fog,128
2013-10-23,62,55,48,55,52,46,100,91,67,29.98,29.92,29.86,16,4,0,10,5,,0.00,5,Fog-Rain,142
2013-10-24,64,58,51,54,51,46,94,80,56,30.15,30.08,29.98,16,7,6,17,10,,0.00,2,Rain,223
2013-10-25,57,50,42,54,48,41,100,95,82,30.16,30.11,30.06,16,2,0,7,3,,0.00,5,Fog,61
2013-10-26,66,56,47,55,51,48,100,88,58,30.07,30.04,30.01,19,2,0,15,5,,0.00,6,Fog,199
2013-10-27,64,57,50,54,49,43,94,73,51,30.01,29.88,29.80,19,10,6,29,11,40,0.01,1,Rain,206
2013-10-28,71,61,51,50,46,41,77,60,35,29.90,29.76,29.65,6,6,6,24,14,36,0.00,3,,203
2013-10-29,55,50,46,45,43,41,87,71,48,30.07,29.96,29.83,6,6,6,22,15,,0.00,2,Rain,222
2013-10-30,54,46,35,43,38,30,87,73,47,30.34,30.20,30.09,6,6,6,18,11,,0.00,3,Rain,234
2013-10-31,51,40,30,37,33,28,93,75,37,30.43,30.29,30.18,19,16,9,9,5,,0.00,,,154